Terminal Aerodrome Forecast
Issued by NWS Cleveland, OH

Home | Current Version | Previous Version | Graphics & Text | Print | Product List | Glossary On
Versions: 1 2 3 4 5 6 7 8 9 10 11 12 13 14 15 16 17 18 19
000
FTUS41 KCLE 261500 AAB
TAFCAK
TAF AMD
KCAK 261536Z 2616/2712 36008KT 2SM -RA BR BKN008 OVC010
     FM261900 32008KT 3SM BR VCSH OVC015
     FM262200 30008KT P6SM OVC025
     FM270300 28007KT P6SM OVC035=

USA.gov is the U.S. government's official web portal to all federal, state and local government web resources and services.